^^
Your Local Weather - Clay, NY Station Historical Data
Daily Summary for November 1, 2017 Units:  English    Metric   Both
« Previous Day
Next Day »
Daily Weekly Monthly Yearly Custom
  High: Low: Average:
Temperature: 47.2 °F 32.3 °F 39.5 °F
Dew Point: 40.9 °F 30.1 °F 34.9 °F
Humidity: 94% 55% 84%
Wind Speed: 6.0mph 0.0mph 1.1mph
Wind Gust: 11.0mph - -
Wind- - ESE
Pressure: 30.27 in 30.15 in -
Precipitation: 0.45 in    
Historical Graphs
 
 
Tabular Data for November 1, 2017
Time Temperature Dew Point Pressure Wind Wind Speed Wind Gust Humidity Rainfall Rate (Hourly) solar
00:00 41.0 °F 32.7 °F 30.17 in Calm     72% 0.00 in 0 W/m2
00:06 41.1 °F 32.8 °F 30.17 in Calm     72% 0.00 in 0 W/m2
00:12 41.0 °F 32.7 °F 30.17 in Calm     72% 0.00 in 0 W/m2
00:18 40.9 °F 32.6 °F 30.17 in WSW 1.0 mph 1.0 mph 72% 0.00 in 0 W/m2
00:24 40.9 °F 32.9 °F 30.17 in WSW 1.0 mph 1.0 mph 73% 0.00 in 0 W/m2
00:30 40.8 °F 32.8 °F 30.17 in WSW 1.0 mph 1.0 mph 73% 0.00 in 0 W/m2
00:36 40.8 °F 32.8 °F 30.18 in WSW 1.0 mph 2.0 mph 73% 0.00 in 0 W/m2
00:42 40.8 °F 32.8 °F 30.18 in WSW 1.0 mph 2.0 mph 73% 0.00 in 0 W/m2
00:48 40.9 °F 32.9 °F 30.18 in Calm   2.0 mph 73% 0.00 in 0 W/m2
00:56 40.9 °F 32.9 °F 30.19 in Calm     73% 0.00 in 0 W/m2
01:02 40.9 °F 32.9 °F 30.19 in Calm     73% 0.00 in 0 W/m2
01:04 40.8 °F 32.8 °F 30.19 in Calm     73% 0.00 in 0 W/m2
01:10 40.6 °F 33.0 °F 30.20 in Calm     74% 0.00 in 0 W/m2
01:16 40.4 °F 33.1 °F 30.20 in Calm     75% 0.00 in 0 W/m2
01:22 40.1 °F 33.1 °F 30.19 in Calm     76% 0.00 in 0 W/m2
01:28 39.8 °F 33.5 °F 30.19 in Calm     78% 0.00 in 0 W/m2
01:34 39.5 °F 33.8 °F 30.19 in Calm     80% 0.00 in 0 W/m2
01:40 39.0 °F 34.0 °F 30.19 in Calm     82% 0.00 in 0 W/m2
01:46 38.6 °F 33.9 °F 30.19 in Calm     83% 0.00 in 0 W/m2
01:52 38.1 °F 33.7 °F 30.19 in Calm     84% 0.00 in 0 W/m2
01:58 37.8 °F 33.7 °F 30.19 in Calm     85% 0.00 in 0 W/m2
02:04 37.6 °F 33.5 °F 30.19 in Calm     85% 0.00 in 0 W/m2
02:10 37.2 °F 33.4 °F 30.19 in Calm     86% 0.00 in 0 W/m2
02:16 36.8 °F 33.0 °F 30.19 in Calm     86% 0.00 in 0 W/m2
02:22 36.5 °F 33.0 °F 30.19 in Calm     87% 0.00 in 0 W/m2
02:28 36.2 °F 32.7 °F 30.20 in Calm     87% 0.00 in 0 W/m2
02:34 35.9 °F 32.4 °F 30.20 in Calm     87% 0.00 in 0 W/m2
02:40 35.3 °F 31.8 °F 30.20 in Calm     87% 0.00 in 0 W/m2
02:46 35.0 °F 31.8 °F 30.20 in Calm     88% 0.00 in 0 W/m2
02:52 34.5 °F 31.3 °F 30.20 in Calm     88% 0.00 in 0 W/m2
02:58 34.3 °F 31.1 °F 30.20 in Calm     88% 0.00 in 0 W/m2
03:04 34.4 °F 31.5 °F 30.20 in Calm     89% 0.00 in 0 W/m2
03:10 34.4 °F 31.5 °F 30.19 in Calm     89% 0.00 in 0 W/m2
03:16 34.5 °F 31.6 °F 30.19 in Calm     89% 0.00 in 0 W/m2
03:22 34.4 °F 31.5 °F 30.19 in Calm     89% 0.00 in 0 W/m2
03:28 33.9 °F 31.0 °F 30.20 in Calm   2.0 mph 89% 0.00 in 0 W/m2
03:34 33.7 °F 30.8 °F 30.20 in Calm     89% 0.00 in 0 W/m2
03:40 33.6 °F 30.7 °F 30.20 in Calm     89% 0.00 in 0 W/m2
03:46 33.4 °F 30.5 °F 30.19 in Calm     89% 0.00 in 0 W/m2
03:52 33.2 °F 30.6 °F 30.19 in Calm     90% 0.00 in 0 W/m2
03:58 33.1 °F 30.5 °F 30.20 in Calm     90% 0.00 in 0 W/m2
04:04 33.0 °F 30.4 °F 30.20 in Calm     90% 0.00 in 0 W/m2
04:10 32.9 °F 30.3 °F 30.20 in Calm     90% 0.00 in 0 W/m2
04:16 33.0 °F 30.4 °F 30.20 in Calm     90% 0.00 in 0 W/m2
04:22 33.0 °F 30.4 °F 30.20 in Calm     90% 0.00 in 0 W/m2
04:28 32.9 °F 30.3 °F 30.20 in Calm     90% 0.00 in 0 W/m2
04:34 32.9 °F 30.3 °F 30.19 in Calm     90% 0.00 in 0 W/m2
04:40 33.1 °F 30.8 °F 30.19 in Calm     91% 0.00 in 0 W/m2
04:46 33.0 °F 30.7 °F 30.19 in Calm     91% 0.00 in 0 W/m2
04:52 33.0 °F 30.7 °F 30.19 in Calm     91% 0.00 in 0 W/m2
04:58 33.2 °F 30.9 °F 30.19 in Calm     91% 0.00 in 0 W/m2
05:04 33.2 °F 30.9 °F 30.19 in Calm     91% 0.00 in 0 W/m2
05:10 33.1 °F 30.8 °F 30.19 in Calm     91% 0.00 in 0 W/m2
05:16 32.9 °F 30.6 °F 30.20 in Calm     91% 0.00 in 0 W/m2
05:22 32.8 °F 30.5 °F 30.20 in Calm     91% 0.00 in 0 W/m2
05:28 32.6 °F 30.3 °F 30.20 in Calm     91% 0.00 in 0 W/m2
05:34 32.6 °F 30.3 °F 30.20 in Calm     91% 0.00 in 0 W/m2
05:40 32.6 °F 30.3 °F 30.20 in Calm     91% 0.00 in 0 W/m2
05:46 32.5 °F 30.2 °F 30.20 in Calm     91% 0.00 in 0 W/m2
05:52 32.4 °F 30.1 °F 30.19 in Calm     91% 0.00 in 0 W/m2
05:58 32.4 °F 30.1 °F 30.20 in Calm   1.0 mph 91% 0.00 in 0 W/m2
06:04 32.5 °F 30.4 °F 30.20 in Calm     92% 0.00 in 0 W/m2
06:10 32.7 °F 30.6 °F 30.20 in Calm     92% 0.00 in 0 W/m2
06:16 32.8 °F 30.7 °F 30.20 in Calm     92% 0.00 in 0 W/m2
06:22 32.6 °F 30.5 °F 30.20 in Calm     92% 0.00 in 0 W/m2
06:28 32.4 °F 30.3 °F 30.20 in Calm     92% 0.00 in 0 W/m2
06:34 32.3 °F 30.2 °F 30.20 in Calm     92% 0.00 in 0 W/m2
06:40 32.5 °F 30.4 °F 30.20 in Calm     92% 0.00 in 0 W/m2
06:46 32.7 °F 30.6 °F 30.20 in Calm     92% 0.00 in 0 W/m2
06:52 32.7 °F 30.6 °F 30.22 in Calm     92% 0.00 in 0 W/m2
06:58 32.7 °F 30.6 °F 30.22 in Calm     92% 0.00 in 0 W/m2
07:04 32.6 °F 30.5 °F 30.22 in Calm     92% 0.00 in 0 W/m2
07:10 32.7 °F 30.6 °F 30.22 in Calm     92% 0.00 in 0 W/m2
07:16 33.0 °F 30.9 °F 30.22 in Calm     92% 0.00 in 0 W/m2
07:22 33.2 °F 31.1 °F 30.22 in Calm     92% 0.00 in 0 W/m2
07:28 33.4 °F 31.3 °F 30.22 in Calm     92% 0.00 in 0 W/m2
07:34 33.6 °F 31.5 °F 30.22 in Calm     92% 0.00 in 0 W/m2
07:40 33.8 °F 31.7 °F 30.22 in Calm     92% 0.00 in 0 W/m2
07:46 33.9 °F 31.8 °F 30.22 in Calm   1.0 mph 92% 0.00 in 0 W/m2
07:52 33.9 °F 31.8 °F 30.22 in SE 1.0 mph 1.0 mph 92% 0.00 in 7 W/m2
07:58 34.2 °F 32.1 °F 30.23 in SE 1.0 mph 1.0 mph 92% 0.00 in 12 W/m2
08:04 34.3 °F 32.2 °F 30.23 in Calm     92% 0.00 in 16 W/m2
08:10 34.5 °F 32.4 °F 30.24 in Calm     92% 0.00 in 18 W/m2
08:16 34.6 °F 32.5 °F 30.24 in Calm     92% 0.00 in 23 W/m2
08:22 35.0 °F 32.9 °F 30.25 in Calm     92% 0.00 in 25 W/m2
08:28 35.3 °F 33.2 °F 30.25 in Calm     92% 0.00 in 35 W/m2
08:34 35.4 °F 33.3 °F 30.25 in Calm     92% 0.00 in 40 W/m2
08:40 35.7 °F 33.3 °F 30.25 in Calm     91% 0.00 in 44 W/m2
08:46 36.1 °F 33.7 °F 30.25 in Calm     91% 0.00 in 39 W/m2
08:52 36.5 °F 33.8 °F 30.25 in Calm     90% 0.00 in 46 W/m2
08:58 36.8 °F 34.1 °F 30.26 in Calm     90% 0.00 in 40 W/m2
09:04 37.2 °F 34.3 °F 30.26 in Calm     89% 0.00 in 46 W/m2
09:10 37.5 °F 34.3 °F 30.26 in Calm     88% 0.00 in 72 W/m2
09:16 37.8 °F 34.3 °F 30.26 in Calm     87% 0.00 in 74 W/m2
09:22 38.3 °F 34.5 °F 30.27 in Calm   2.0 mph 86% 0.00 in 76 W/m2
09:28 38.8 °F 34.1 °F 30.27 in SE 2.0 mph 3.0 mph 83% 0.00 in 84 W/m2
09:34 39.1 °F 34.1 °F 30.27 in SE 1.0 mph 2.0 mph 82% 0.00 in 90 W/m2
09:40 39.5 °F 34.2 °F 30.27 in SE 1.0 mph 2.0 mph 81% 0.00 in 102 W/m2
09:46 39.8 °F 34.1 °F 30.27 in SE 1.0 mph 2.0 mph 80% 0.00 in 88 W/m2
09:50 40.0 °F 34.0 °F 30.27 in SE 2.0 mph 2.0 mph 79% 0.00 in 83 W/m2
09:56 40.3 °F 33.3 °F 30.27 in SE 2.0 mph 4.0 mph 76% 0.00 in 132 W/m2
10:02 40.8 °F 33.8 °F 30.27 in SSE 2.0 mph 3.0 mph 76% 0.00 in 148 W/m2
10:08 41.3 °F 33.6 °F 30.27 in ESE 2.0 mph 3.0 mph 74% 0.00 in 193 W/m2
10:14 42.0 °F 33.6 °F 30.26 in SSE 3.0 mph 4.0 mph 72% 0.00 in 199 W/m2
10:20 42.5 °F 33.8 °F 30.26 in SE 2.0 mph 2.0 mph 71% 0.00 in 172 W/m2
10:26 42.9 °F 32.7 °F 30.26 in South 2.0 mph 3.0 mph 67% 0.00 in 146 W/m2
10:32 43.1 °F 32.5 °F 30.27 in South 3.0 mph 3.0 mph 66% 0.00 in 171 W/m2
10:38 43.6 °F 33.0 °F 30.27 in SE 2.0 mph 4.0 mph 66% 0.00 in 202 W/m2
10:44 44.0 °F 32.6 °F 30.26 in SE 3.0 mph 4.0 mph 64% 0.00 in 165 W/m2
10:50 44.1 °F 31.9 °F 30.26 in SSE 3.0 mph 3.0 mph 62% 0.00 in 141 W/m2
10:56 44.3 °F 32.1 °F 30.26 in SSE 2.0 mph 3.0 mph 62% 0.00 in 178 W/m2
11:02 44.5 °F 32.7 °F 30.26 in SSE 2.0 mph 2.0 mph 63% 0.00 in 185 W/m2
11:08 44.6 °F 32.4 °F 30.26 in SSE 2.0 mph 4.0 mph 62% 0.00 in 197 W/m2
11:14 44.7 °F 32.5 °F 30.26 in SSE 3.0 mph 3.0 mph 62% 0.00 in 246 W/m2
11:20 45.1 °F 32.0 °F 30.25 in SSE 2.0 mph 5.0 mph 60% 0.00 in 232 W/m2
11:26 45.3 °F 32.2 °F 30.26 in SSE 2.0 mph 5.0 mph 60% 0.00 in 227 W/m2
11:32 45.6 °F 32.5 °F 30.25 in SSE 2.0 mph 3.0 mph 60% 0.00 in 232 W/m2
11:38 45.8 °F 32.3 °F 30.25 in SSE 1.0 mph 3.0 mph 59% 0.00 in 186 W/m2
11:44 46.0 °F 32.0 °F 30.25 in SSE 2.0 mph 2.0 mph 58% 0.00 in 192 W/m2
11:50 46.2 °F 33.1 °F 30.25 in SSE 1.0 mph 2.0 mph 60% 0.00 in 135 W/m2
11:56 46.3 °F 32.7 °F 30.25 in SSE 2.0 mph 6.0 mph 59% 0.00 in 111 W/m2
12:02 46.0 °F 32.5 °F 30.25 in SSE 4.0 mph 5.0 mph 59% 0.00 in 114 W/m2
12:08 46.0 °F 33.3 °F 30.25 in SSE 3.0 mph 5.0 mph 61% 0.00 in 97 W/m2
12:14 46.1 °F 32.6 °F 30.25 in SSE 2.0 mph 3.0 mph 59% 0.00 in 76 W/m2
12:20 46.0 °F 32.5 °F 30.25 in SSE 3.0 mph 3.0 mph 59% 0.00 in 77 W/m2
12:26 46.0 °F 32.5 °F 30.25 in SSE 2.0 mph 3.0 mph 59% 0.00 in 127 W/m2
12:32 46.3 °F 33.2 °F 30.24 in SSE 2.0 mph 4.0 mph 60% 0.00 in 132 W/m2
12:38 46.5 °F 32.5 °F 30.24 in ESE 2.0 mph 4.0 mph 58% 0.00 in 167 W/m2
12:44 46.9 °F 32.0 °F 30.24 in SSE 2.0 mph 5.0 mph 56% 0.00 in 165 W/m2
12:50 47.0 °F 32.1 °F 30.23 in South 3.0 mph 3.0 mph 56% 0.00 in 139 W/m2
12:56 47.1 °F 31.7 °F 30.23 in SSW 3.0 mph 4.0 mph 55% 0.00 in 137 W/m2
13:02 47.1 °F 31.7 °F 30.23 in SSE 3.0 mph 4.0 mph 55% 0.00 in 113 W/m2
13:08 47.1 °F 32.2 °F 30.23 in SSE 4.0 mph 4.0 mph 56% 0.00 in 125 W/m2
13:14 47.2 °F 32.3 °F 30.23 in SE 3.0 mph 4.0 mph 56% 0.00 in 98 W/m2
13:20 47.0 °F 32.1 °F 30.23 in SSE 4.0 mph 4.0 mph 56% 0.00 in 97 W/m2
13:26 46.7 °F 33.1 °F 30.23 in SW 5.0 mph 9.0 mph 59% 0.00 in 93 W/m2
13:38 45.4 °F 34.3 °F 30.23 in SSW 6.0 mph 8.0 mph 65% 0.00 in 65 W/m2
13:44 44.5 °F 35.0 °F 30.23 in SSE 6.0 mph 11.0 mph 69% 0.00 in 49 W/m2
13:50 43.7 °F 35.3 °F 30.23 in SSW 6.0 mph 6.0 mph 72% 0.00 in 40 W/m2
13:56 43.1 °F 36.0 °F 30.23 in South 4.0 mph 6.0 mph 76% 0.00 in 49 W/m2
14:02 42.6 °F 36.2 °F 30.22 in South 5.0 mph 5.0 mph 78% 0.00 in 62 W/m2
14:08 42.3 °F 36.3 °F 30.22 in South 4.0 mph 6.0 mph 79% 0.00 in 37 W/m2
14:14 42.1 °F 36.4 °F 30.22 in South 5.0 mph 7.0 mph 80% 0.00 in 37 W/m2
14:20 41.7 °F 36.0 °F 30.22 in SSE 5.0 mph 5.0 mph 80% 0.00 in 28 W/m2
14:26 41.5 °F 36.4 °F 30.22 in South 4.0 mph 7.0 mph 82% 0.00 in 28 W/m2
14:32 41.4 °F 36.6 °F 30.22 in SSE 3.0 mph 4.0 mph 83% 0.00 in 53 W/m2
14:38 41.3 °F 36.8 °F 30.22 in SE 3.0 mph 4.0 mph 84% 0.00 in 54 W/m2
14:44 41.2 °F 36.7 °F 30.22 in South 4.0 mph 7.0 mph 84% 0.04 in 46 W/m2
14:50 41.0 °F 37.1 °F 30.22 in SE 3.0 mph 3.0 mph 86% 0.12 in 33 W/m2
14:56 40.9 °F 37.0 °F 30.21 in SE 2.0 mph 3.0 mph 86% 0.09 in 25 W/m2
15:02 40.8 °F 37.2 °F 30.20 in SSE 1.0 mph 3.0 mph 87% 0.08 in 21 W/m2
15:08 40.7 °F 37.4 °F 30.20 in SE 2.0 mph 4.0 mph 88% 0.05 in 16 W/m2
15:14 40.6 °F 37.3 °F 30.20 in SE 1.0 mph 3.0 mph 88% 0.04 in 18 W/m2
15:20 40.5 °F 37.2 °F 30.20 in SE 1.0 mph 1.0 mph 88% 0.00 in 23 W/m2
15:26 40.5 °F 37.2 °F 30.20 in Calm   2.0 mph 88% 0.00 in 19 W/m2
15:32 40.4 °F 37.1 °F 30.20 in East 1.0 mph 1.0 mph 88% 0.00 in 21 W/m2
15:38 40.4 °F 37.4 °F 30.20 in South 1.0 mph 2.0 mph 89% 0.04 in 19 W/m2
15:44 40.4 °F 37.4 °F 30.20 in Calm   1.0 mph 89% 0.04 in 19 W/m2
15:50 40.4 °F 37.4 °F 30.19 in Calm     89% 0.04 in 21 W/m2
15:56 40.4 °F 37.4 °F 30.19 in SE 1.0 mph 1.0 mph 89% 0.00 in 18 W/m2
16:03 40.3 °F 37.3 °F 30.19 in SE 1.0 mph 1.0 mph 89% 0.00 in 12 W/m2
16:08 40.4 °F 37.7 °F 30.19 in Calm   1.0 mph 90% 0.00 in 11 W/m2
16:14 40.4 °F 37.7 °F 30.19 in Calm     90% 0.00 in 12 W/m2
16:20 40.4 °F 37.7 °F 30.19 in Calm   1.0 mph 90% 0.00 in 12 W/m2
16:26 40.5 °F 37.8 °F 30.19 in ENE 1.0 mph 7.0 mph 90% 0.00 in 14 W/m2
16:32 40.5 °F 37.8 °F 30.18 in ENE 1.0 mph 3.0 mph 90% 0.00 in 9 W/m2
16:38 40.6 °F 37.9 °F 30.18 in NE 1.0 mph 3.0 mph 90% 0.00 in 12 W/m2
16:44 40.6 °F 37.9 °F 30.17 in ENE 1.0 mph 3.0 mph 90% 0.00 in 7 W/m2
16:50 40.6 °F 37.9 °F 30.17 in ENE 2.0 mph 3.0 mph 90% 0.00 in 11 W/m2
16:56 40.5 °F 38.1 °F 30.17 in ENE 2.0 mph 4.0 mph 91% 0.00 in 9 W/m2
17:02 40.6 °F 38.2 °F 30.17 in ENE 1.0 mph 2.0 mph 91% 0.00 in 7 W/m2
17:08 40.5 °F 38.1 °F 30.17 in ENE 1.0 mph 2.0 mph 91% 0.00 in 0 W/m2
17:14 40.5 °F 38.1 °F 30.17 in ENE 1.0 mph 4.0 mph 91% 0.00 in 0 W/m2
17:20 40.5 °F 38.1 °F 30.17 in ENE 1.0 mph 2.0 mph 91% 0.00 in 5 W/m2
17:26 40.5 °F 38.1 °F 30.17 in ENE 1.0 mph 2.0 mph 91% 0.04 in 0 W/m2
17:32 40.5 °F 38.1 °F 30.17 in ENE 1.0 mph 2.0 mph 91% 0.05 in 0 W/m2
17:38 40.5 °F 38.1 °F 30.17 in ENE 1.0 mph 3.0 mph 91% 0.05 in 0 W/m2
17:44 40.5 °F 38.1 °F 30.18 in ENE 1.0 mph 3.0 mph 91% 0.05 in 0 W/m2
17:50 40.5 °F 38.1 °F 30.17 in ENE 1.0 mph 1.0 mph 91% 0.05 in 0 W/m2
17:56 40.5 °F 38.1 °F 30.17 in ENE 1.0 mph 1.0 mph 91% 0.06 in 0 W/m2
18:02 40.5 °F 38.1 °F 30.17 in ENE 1.0 mph 1.0 mph 91% 0.09 in 0 W/m2
18:08 40.5 °F 38.4 °F 30.17 in ENE 1.0 mph 2.0 mph 92% 0.07 in 0 W/m2
18:14 40.5 °F 38.4 °F 30.17 in ENE 1.0 mph 3.0 mph 92% 0.06 in 0 W/m2
18:20 40.5 °F 38.4 °F 30.17 in ENE 1.0 mph 3.0 mph 92% 0.07 in 0 W/m2
18:26 40.5 °F 38.4 °F 30.17 in ENE 1.0 mph 4.0 mph 92% 0.07 in 0 W/m2
18:32 40.6 °F 38.5 °F 30.17 in ENE 2.0 mph 2.0 mph 92% 0.04 in 0 W/m2
18:38 40.6 °F 38.5 °F 30.17 in ENE 1.0 mph 2.0 mph 92% 0.00 in 0 W/m2
18:44 40.6 °F 38.5 °F 30.17 in ENE 1.0 mph 2.0 mph 92% 0.00 in 0 W/m2
18:50 40.7 °F 38.6 °F 30.17 in ENE 1.0 mph 1.0 mph 92% 0.00 in 0 W/m2
18:56 40.7 °F 38.6 °F 30.17 in ENE 1.0 mph 1.0 mph 92% 0.00 in 0 W/m2
19:02 40.8 °F 38.7 °F 30.17 in ENE 1.0 mph 1.0 mph 92% 0.00 in 0 W/m2
19:08 40.8 °F 38.7 °F 30.17 in Calm   1.0 mph 92% 0.00 in 0 W/m2
19:14 40.8 °F 38.7 °F 30.17 in Calm     92% 0.00 in 0 W/m2
19:20 40.9 °F 38.8 °F 30.17 in ENE 1.0 mph 1.0 mph 92% 0.00 in 0 W/m2
19:26 40.9 °F 38.8 °F 30.17 in ENE 1.0 mph 3.0 mph 92% 0.00 in 0 W/m2
19:32 41.0 °F 38.9 °F 30.17 in ENE 1.0 mph 2.0 mph 92% 0.00 in 0 W/m2
19:38 41.0 °F 38.9 °F 30.17 in ENE 1.0 mph 2.0 mph 92% 0.00 in 0 W/m2
19:44 41.1 °F 39.0 °F 30.17 in ENE 2.0 mph 2.0 mph 92% 0.00 in 0 W/m2
19:50 41.1 °F 39.0 °F 30.16 in ENE 1.0 mph 2.0 mph 92% 0.00 in 0 W/m2
19:56 41.2 °F 39.3 °F 30.16 in ENE 1.0 mph 3.0 mph 93% 0.00 in 0 W/m2
20:02 41.3 °F 39.4 °F 30.17 in ENE 1.0 mph 2.0 mph 93% 0.00 in 0 W/m2
20:08 41.3 °F 39.4 °F 30.17 in ENE 1.0 mph 3.0 mph 93% 0.00 in 0 W/m2
20:14 41.4 °F 39.5 °F 30.16 in ENE 1.0 mph 3.0 mph 93% 0.00 in 0 W/m2
20:20 41.4 °F 39.5 °F 30.16 in ENE 1.0 mph 1.0 mph 93% 0.08 in 0 W/m2
20:26 41.4 °F 39.5 °F 30.16 in ENE 1.0 mph 1.0 mph 93% 0.06 in 0 W/m2
20:32 41.5 °F 39.6 °F 30.16 in Calm   2.0 mph 93% 0.06 in 0 W/m2
20:38 41.5 °F 39.6 °F 30.16 in ENE 1.0 mph 2.0 mph 93% 0.07 in 0 W/m2
20:44 41.5 °F 39.6 °F 30.16 in Calm   1.0 mph 93% 0.06 in 0 W/m2
20:50 41.5 °F 39.6 °F 30.16 in ENE 1.0 mph 1.0 mph 93% 0.05 in 0 W/m2
20:56 41.6 °F 39.7 °F 30.16 in ENE 2.0 mph 4.0 mph 93% 0.16 in 0 W/m2
21:04 41.6 °F 39.7 °F 30.16 in SE 2.0 mph 3.0 mph 93% 0.35 in 0 W/m2
21:10 41.6 °F 39.7 °F 30.16 in SE 1.0 mph 1.0 mph 93% 0.12 in 0 W/m2
21:16 41.7 °F 39.8 °F 30.16 in Calm   2.0 mph 93% 0.11 in 0 W/m2
21:22 41.8 °F 39.9 °F 30.16 in East 1.0 mph 1.0 mph 93% 0.23 in 0 W/m2
21:28 41.8 °F 39.9 °F 30.15 in East 1.0 mph 5.0 mph 93% 0.15 in 0 W/m2
21:34 41.9 °F 40.0 °F 30.16 in SE 1.0 mph 1.0 mph 93% 0.13 in 0 W/m2
21:40 42.0 °F 40.1 °F 30.16 in East 1.0 mph 1.0 mph 93% 0.10 in 0 W/m2
21:46 42.1 °F 40.2 °F 30.16 in East 1.0 mph 3.0 mph 93% 0.07 in 0 W/m2
21:52 42.1 °F 40.2 °F 30.16 in East 1.0 mph 3.0 mph 93% 0.07 in 0 W/m2
21:58 42.1 °F 40.2 °F 30.16 in ESE 2.0 mph 3.0 mph 93% 0.05 in 0 W/m2
22:04 42.1 °F 40.2 °F 30.15 in ESE 3.0 mph 3.0 mph 93% 0.05 in 0 W/m2
22:10 42.1 °F 40.2 °F 30.16 in ESE 2.0 mph 2.0 mph 93% 0.06 in 0 W/m2
22:16 42.1 °F 40.2 °F 30.16 in ENE 1.0 mph 3.0 mph 93% 0.08 in 0 W/m2
22:22 42.1 °F 40.2 °F 30.16 in ENE 1.0 mph 1.0 mph 93% 0.11 in 0 W/m2
22:28 42.1 °F 40.2 °F 30.16 in Calm   2.0 mph 93% 0.08 in 0 W/m2
22:34 42.2 °F 40.3 °F 30.16 in Calm   3.0 mph 93% 0.07 in 0 W/m2
22:40 42.2 °F 40.3 °F 30.16 in NE 1.0 mph 2.0 mph 93% 0.04 in 0 W/m2
22:46 42.2 °F 40.3 °F 30.16 in NE 1.0 mph 2.0 mph 93% 0.00 in 0 W/m2
22:52 42.2 °F 40.3 °F 30.16 in ENE 1.0 mph 1.0 mph 93% 0.00 in 0 W/m2
22:58 42.2 °F 40.3 °F 30.16 in ENE 1.0 mph 1.0 mph 93% 0.00 in 0 W/m2
23:04 42.3 °F 40.7 °F 30.16 in Calm   2.0 mph 94% 0.00 in 0 W/m2
23:10 42.3 °F 40.7 °F 30.16 in Calm     94% 0.00 in 0 W/m2
23:16 42.3 °F 40.7 °F 30.16 in ENE 1.0 mph 1.0 mph 94% 0.00 in 0 W/m2
23:22 42.3 °F 40.7 °F 30.16 in ENE 2.0 mph 2.0 mph 94% 0.00 in 0 W/m2
23:28 42.3 °F 40.7 °F 30.16 in ENE 2.0 mph 2.0 mph 94% 0.00 in 0 W/m2
23:34 42.4 °F 40.8 °F 30.16 in ENE 1.0 mph 3.0 mph 94% 0.00 in 0 W/m2
23:40 42.4 °F 40.8 °F 30.16 in ENE 1.0 mph 1.0 mph 94% 0.00 in 0 W/m2
23:46 42.5 °F 40.9 °F 30.16 in ENE 2.0 mph 5.0 mph 94% 0.00 in 0 W/m2
23:52 42.5 °F 40.9 °F 30.16 in ENE 2.0 mph 2.0 mph 94% 0.00 in 0 W/m2
23:56 42.5 °F 40.9 °F 30.16 in ENE 2.0 mph 2.0 mph 94% 0.00 in 0 W/m2
Country Meadow, Clay, NY, USA
Compliments of Weather Underground - 2 mb